Preview of NWS' New Version of Forecast
This preview is not operational and should not be used for support decisions.

Terminal Aerodrome Forecast (TAF)

Issued by National Weather Service (NWS)

                            
344 
FTUS42 KKEY 220533
TAFEYW
TAF
KEYW 220533Z 2206/2306 09013G22KT P6SM SCT020 SCT050
     FM220900 09012G20KT P6SM VCSH SCT020 SCT035 SCT060
     FM221500 10013G22KT P6SM VCSH SCT020 SCT050 BKN080=